sensor_id;sensor_type;location;lat;lon;timestamp;temperature;humidity
68609;SHT31;55581;46.718;7.690;2023-04-01T00:00:10;6.81;79.17
68609;SHT31;55581;46.718;7.690;2023-04-01T00:02:36;6.98;79.11
68609;SHT31;55581;46.718;7.690;2023-04-01T00:05:01;7.06;78.96
68609;SHT31;55581;46.718;7.690;2023-04-01T00:07:27;7.19;79.08
68609;SHT31;55581;46.718;7.690;2023-04-01T00:09:52;7.11;83.89
68609;SHT31;55581;46.718;7.690;2023-04-01T00:12:17;7.02;82.31
68609;SHT31;55581;46.718;7.690;2023-04-01T00:14:43;7.04;81.18
68609;SHT31;55581;46.718;7.690;2023-04-01T00:17:11;7.08;80.30
68609;SHT31;55581;46.718;7.690;2023-04-01T00:19:36;7.08;80.75
68609;SHT31;55581;46.718;7.690;2023-04-01T00:22:02;6.94;85.11
68609;SHT31;55581;46.718;7.690;2023-04-01T00:24:28;7.02;83.17
68609;SHT31;55581;46.718;7.690;2023-04-01T00:26:54;6.98;83.75
68609;SHT31;55581;46.718;7.690;2023-04-01T00:29:19;6.84;87.43
68609;SHT31;55581;46.718;7.690;2023-04-01T00:31:45;6.85;85.47
68609;SHT31;55581;46.718;7.690;2023-04-01T00:34:11;6.74;86.66
68609;SHT31;55581;46.718;7.690;2023-04-01T00:36:37;6.68;86.10
68609;SHT31;55581;46.718;7.690;2023-04-01T00:39:03;6.66;88.98
68609;SHT31;55581;46.718;7.690;2023-04-01T00:41:29;6.53;89.93
68609;SHT31;55581;46.718;7.690;2023-04-01T00:44:16;6.57;84.60
68609;SHT31;55581;46.718;7.690;2023-04-01T00:46:41;6.70;81.52
68609;SHT31;55581;46.718;7.690;2023-04-01T00:49:07;6.74;85.84
68609;SHT31;55581;46.718;7.690;2023-04-01T00:51:32;6.89;78.41
68609;SHT31;55581;46.718;7.690;2023-04-01T00:54:01;7.11;79.58
68609;SHT31;55581;46.718;7.690;2023-04-01T00:56:34;7.30;76.10
68609;SHT31;55581;46.718;7.690;2023-04-01T00:59:07;7.46;74.84
68609;SHT31;55581;46.718;7.690;2023-04-01T01:01:38;7.53;74.66
68609;SHT31;55581;46.718;7.690;2023-04-01T01:04:03;7.56;73.45
68609;SHT31;55581;46.718;7.690;2023-04-01T01:15:08;7.34;81.76
68609;SHT31;55581;46.718;7.690;2023-04-01T01:31:12;6.43;85.95
68609;SHT31;55581;46.718;7.690;2023-04-01T01:36:33;6.39;81.80
68609;SHT31;55581;46.718;7.690;2023-04-01T01:39:04;6.32;85.27
68609;SHT31;55581;46.718;7.690;2023-04-01T01:41:32;6.20;85.91
68609;SHT31;55581;46.718;7.690;2023-04-01T01:44:01;6.50;79.19
68609;SHT31;55581;46.718;7.690;2023-04-01T01:46:30;6.64;76.19
68609;SHT31;55581;46.718;7.690;2023-04-01T01:48:56;6.80;74.36
68609;SHT31;55581;46.718;7.690;2023-04-01T01:51:22;7.06;73.79
68609;SHT31;55581;46.718;7.690;2023-04-01T01:53:48;7.16;73.32
68609;SHT31;55581;46.718;7.690;2023-04-01T01:56:13;7.06;75.23
68609;SHT31;55581;46.718;7.690;2023-04-01T01:58:44;6.95;75.42
68609;SHT31;55581;46.718;7.690;2023-04-01T02:01:17;6.85;74.78
68609;SHT31;55581;46.718;7.690;2023-04-01T02:03:44;6.88;76.85
68609;SHT31;55581;46.718;7.690;2023-04-01T02:06:14;7.01;69.47
68609;SHT31;55581;46.718;7.690;2023-04-01T02:08:51;6.85;75.80
68609;SHT31;55581;46.718;7.690;2023-04-01T02:11:22;6.85;72.41
68609;SHT31;55581;46.718;7.690;2023-04-01T02:14:04;7.16;66.98
68609;SHT31;55581;46.718;7.690;2023-04-01T02:19:21;7.05;75.96
68609;SHT31;55581;46.718;7.690;2023-04-01T02:21:58;6.98;77.99
68609;SHT31;55581;46.718;7.690;2023-04-01T02:24:26;6.98;79.28
68609;SHT31;55581;46.718;7.690;2023-04-01T02:26:55;6.99;79.95
68609;SHT31;55581;46.718;7.690;2023-04-01T02:29:23;6.96;78.86
68609;SHT31;55581;46.718;7.690;2023-04-01T02:31:51;6.99;75.24
68609;SHT31;55581;46.718;7.690;2023-04-01T02:34:18;7.13;72.95
68609;SHT31;55581;46.718;7.690;2023-04-01T02:36:47;7.11;77.63
68609;SHT31;55581;46.718;7.690;2023-04-01T02:39:13;7.11;75.08
68609;SHT31;55581;46.718;7.690;2023-04-01T02:41:43;7.04;78.55
68609;SHT31;55581;46.718;7.690;2023-04-01T02:44:10;7.06;76.33
68609;SHT31;55581;46.718;7.690;2023-04-01T02:46:36;7.16;72.26
68609;SHT31;55581;46.718;7.690;2023-04-01T02:49:03;7.09;78.10
68609;SHT31;55581;46.718;7.690;2023-04-01T02:51:31;7.19;72.14
68609;SHT31;55581;46.718;7.690;2023-04-01T02:53:57;7.12;74.91
68609;SHT31;55581;46.718;7.690;2023-04-01T02:56:22;7.11;75.80
68609;SHT31;55581;46.718;7.690;2023-04-01T02:58:48;7.15;74.28
68609;SHT31;55581;46.718;7.690;2023-04-01T03:01:13;7.11;75.97
68609;SHT31;55581;46.718;7.690;2023-04-01T03:03:39;7.13;75.95
68609;SHT31;55581;46.718;7.690;2023-04-01T03:06:08;7.16;79.69
68609;SHT31;55581;46.718;7.690;2023-04-01T03:08:34;7.05;77.73
68609;SHT31;55581;46.718;7.690;2023-04-01T03:11:00;7.02;78.72
68609;SHT31;55581;46.718;7.690;2023-04-01T03:13:25;7.02;76.83
68609;SHT31;55581;46.718;7.690;2023-04-01T03:15:51;7.13;74.33
68609;SHT31;55581;46.718;7.690;2023-04-01T03:18:19;7.26;71.08
68609;SHT31;55581;46.718;7.690;2023-04-01T03:20:45;7.40;71.30
68609;SHT31;55581;46.718;7.690;2023-04-01T03:23:10;7.47;71.93
68609;SHT31;55581;46.718;7.690;2023-04-01T03:25:36;7.47;72.41
68609;SHT31;55581;46.718;7.690;2023-04-01T03:28:02;7.51;71.27
68609;SHT31;55581;46.718;7.690;2023-04-01T03:30:28;7.57;70.17
68609;SHT31;55581;46.718;7.690;2023-04-01T03:32:56;7.63;72.51
68609;SHT31;55581;46.718;7.690;2023-04-01T03:35:25;7.68;69.34
68609;SHT31;55581;46.718;7.690;2023-04-01T03:37:53;7.68;70.14
68609;SHT31;55581;46.718;7.690;2023-04-01T03:40:18;7.64;70.15
68609;SHT31;55581;46.718;7.690;2023-04-01T03:42:44;7.71;67.61
68609;SHT31;55581;46.718;7.690;2023-04-01T03:45:10;7.81;66.27
68609;SHT31;55581;46.718;7.690;2023-04-01T03:47:37;7.77;70.19
68609;SHT31;55581;46.718;7.690;2023-04-01T03:50:05;7.91;65.75
68609;SHT31;55581;46.718;7.690;2023-04-01T03:52:31;7.97;65.95
68609;SHT31;55581;46.718;7.690;2023-04-01T03:54:56;7.99;66.14
68609;SHT31;55581;46.718;7.690;2023-04-01T03:57:22;8.05;66.06
68609;SHT31;55581;46.718;7.690;2023-04-01T03:59:47;8.13;63.33
68609;SHT31;55581;46.718;7.690;2023-04-01T04:02:13;8.17;62.93
68609;SHT31;55581;46.718;7.690;2023-04-01T04:04:38;8.13;69.19
68609;SHT31;55581;46.718;7.690;2023-04-01T04:07:03;8.08;68.94
68609;SHT31;55581;46.718;7.690;2023-04-01T04:09:32;8.06;69.68
68609;SHT31;55581;46.718;7.690;2023-04-01T04:11:58;8.01;69.01
68609;SHT31;55581;46.718;7.690;2023-04-01T04:14:24;7.95;70.48
68609;SHT31;55581;46.718;7.690;2023-04-01T04:16:49;7.79;72.89
68609;SHT31;55581;46.718;7.690;2023-04-01T04:19:15;7.77;72.76
68609;SHT31;55581;46.718;7.690;2023-04-01T04:21:41;7.73;72.93
68609;SHT31;55581;46.718;7.690;2023-04-01T04:24:09;7.67;71.85
68609;SHT31;55581;46.718;7.690;2023-04-01T04:26:37;7.61;76.73
68609;SHT31;55581;46.718;7.690;2023-04-01T04:29:05;7.63;74.33
68609;SHT31;55581;46.718;7.690;2023-04-01T04:31:31;7.66;73.59
68609;SHT31;55581;46.718;7.690;2023-04-01T04:33:59;7.70;74.28
68609;SHT31;55581;46.718;7.690;2023-04-01T04:36:26;7.73;73.08
68609;SHT31;55581;46.718;7.690;2023-04-01T04:38:51;7.70;71.83
68609;SHT31;55581;46.718;7.690;2023-04-01T04:41:20;7.70;70.58
68609;SHT31;55581;46.718;7.690;2023-04-01T04:43:56;7.67;75.80
68609;SHT31;55581;46.718;7.690;2023-04-01T04:46:26;7.59;73.32
68609;SHT31;55581;46.718;7.690;2023-04-01T04:48:52;7.64;71.42
68609;SHT31;55581;46.718;7.690;2023-04-01T04:51:21;7.64;71.00
68609;SHT31;55581;46.718;7.690;2023-04-01T04:53:47;7.63;72.86
68609;SHT31;55581;46.718;7.690;2023-04-01T04:56:12;7.61;73.20
68609;SHT31;55581;46.718;7.690;2023-04-01T04:58:38;7.57;73.28
68609;SHT31;55581;46.718;7.690;2023-04-01T05:01:15;7.56;70.52
68609;SHT31;55581;46.718;7.690;2023-04-01T05:03:41;7.60;69.70
68609;SHT31;55581;46.718;7.690;2023-04-01T05:06:08;7.54;73.01
68609;SHT31;55581;46.718;7.690;2023-04-01T05:08:36;7.50;74.06
68609;SHT31;55581;46.718;7.690;2023-04-01T05:11:07;7.46;73.76
68609;SHT31;55581;46.718;7.690;2023-04-01T05:13:35;7.42;74.60
68609;SHT31;55581;46.718;7.690;2023-04-01T05:16:01;7.43;74.30
68609;SHT31;55581;46.718;7.690;2023-04-01T05:18:27;7.47;74.00
68609;SHT31;55581;46.718;7.690;2023-04-01T05:20:55;7.50;74.19
68609;SHT31;55581;46.718;7.690;2023-04-01T05:23:21;7.51;73.81
68609;SHT31;55581;46.718;7.690;2023-04-01T05:25:48;7.50;73.11
68609;SHT31;55581;46.718;7.690;2023-04-01T05:28:15;7.54;71.94
68609;SHT31;55581;46.718;7.690;2023-04-01T05:30:43;7.50;74.00
68609;SHT31;55581;46.718;7.690;2023-04-01T05:33:09;7.39;74.74
68609;SHT31;55581;46.718;7.690;2023-04-01T05:35:35;7.29;77.78
68609;SHT31;55581;46.718;7.690;2023-04-01T05:38:01;7.24;76.77
68609;SHT31;55581;46.718;7.690;2023-04-01T05:40:27;7.23;80.08
68609;SHT31;55581;46.718;7.690;2023-04-01T05:42:53;7.20;75.87
68609;SHT31;55581;46.718;7.690;2023-04-01T05:45:18;7.22;76.52
68609;SHT31;55581;46.718;7.690;2023-04-01T05:47:44;7.18;76.77
68609;SHT31;55581;46.718;7.690;2023-04-01T05:50:09;7.24;77.90
68609;SHT31;55581;46.718;7.690;2023-04-01T05:52:36;7.36;75.58
68609;SHT31;55581;46.718;7.690;2023-04-01T05:55:02;7.53;75.54
68609;SHT31;55581;46.718;7.690;2023-04-01T05:57:27;7.61;73.32
68609;SHT31;55581;46.718;7.690;2023-04-01T05:59:52;7.75;71.58
68609;SHT31;55581;46.718;7.690;2023-04-01T06:02:18;7.79;73.41
68609;SHT31;55581;46.718;7.690;2023-04-01T06:04:44;7.71;74.73
68609;SHT31;55581;46.718;7.690;2023-04-01T06:07:14;7.60;76.25
68609;SHT31;55581;46.718;7.690;2023-04-01T06:09:43;7.66;69.43
68609;SHT31;55581;46.718;7.690;2023-04-01T06:12:50;7.73;72.37
68609;SHT31;55581;46.718;7.690;2023-04-01T06:18:13;7.92;70.18
68609;SHT31;55581;46.718;7.690;2023-04-01T06:25:54;7.98;72.68
68609;SHT31;55581;46.718;7.690;2023-04-01T06:31:20;8.09;72.52
68609;SHT31;55581;46.718;7.690;2023-04-01T06:36:49;7.99;76.47
68609;SHT31;55581;46.718;7.690;2023-04-01T06:53:10;8.02;71.26
68609;SHT31;55581;46.718;7.690;2023-04-01T06:55:45;8.03;70.89
68609;SHT31;55581;46.718;7.690;2023-04-01T06:58:22;8.01;70.87
68609;SHT31;55581;46.718;7.690;2023-04-01T07:00:56;8.05;72.42
68609;SHT31;55581;46.718;7.690;2023-04-01T07:03:36;8.08;75.53
68609;SHT31;55581;46.718;7.690;2023-04-01T07:06:40;8.10;74.45
68609;SHT31;55581;46.718;7.690;2023-04-01T07:09:22;8.23;72.29
68609;SHT31;55581;46.718;7.690;2023-04-01T07:11:56;8.28;72.89
68609;SHT31;55581;46.718;7.690;2023-04-01T07:14:35;8.26;73.53
68609;SHT31;55581;46.718;7.690;2023-04-01T07:17:20;8.25;73.97
68609;SHT31;55581;46.718;7.690;2023-04-01T07:19:48;8.25;75.06
68609;SHT31;55581;46.718;7.690;2023-04-01T07:22:35;8.22;73.22
68609;SHT31;55581;46.718;7.690;2023-04-01T07:25:24;8.28;76.10
68609;SHT31;55581;46.718;7.690;2023-04-01T07:27:53;8.34;71.46
68609;SHT31;55581;46.718;7.690;2023-04-01T07:30:22;8.43;70.98
68609;SHT31;55581;46.718;7.690;2023-04-01T07:32:53;8.42;69.98
68609;SHT31;55581;46.718;7.690;2023-04-01T07:36:30;8.54;69.77
68609;SHT31;55581;46.718;7.690;2023-04-01T07:44:34;8.56;69.41
68609;SHT31;55581;46.718;7.690;2023-04-01T07:47:21;8.50;71.39
68609;SHT31;55581;46.718;7.690;2023-04-01T07:50:18;8.49;70.05
68609;SHT31;55581;46.718;7.690;2023-04-01T07:53:15;8.42;70.94
68609;SHT31;55581;46.718;7.690;2023-04-01T07:55:46;8.40;70.41
68609;SHT31;55581;46.718;7.690;2023-04-01T07:58:48;8.39;68.89
68609;SHT31;55581;46.718;7.690;2023-04-01T08:15:47;8.47;73.81
68609;SHT31;55581;46.718;7.690;2023-04-01T08:24:25;8.68;71.00
68609;SHT31;55581;46.718;7.690;2023-04-01T08:26:55;8.64;71.62
68609;SHT31;55581;46.718;7.690;2023-04-01T08:29:27;8.71;70.35
68609;SHT31;55581;46.718;7.690;2023-04-01T08:32:10;8.67;71.75
68609;SHT31;55581;46.718;7.690;2023-04-01T08:34:42;8.68;72.62
68609;SHT31;55581;46.718;7.690;2023-04-01T08:37:17;8.64;73.44
68609;SHT31;55581;46.718;7.690;2023-04-01T08:39:47;8.70;71.70
68609;SHT31;55581;46.718;7.690;2023-04-01T08:45:22;8.60;74.26
68609;SHT31;55581;46.718;7.690;2023-04-01T08:51:13;8.75;72.65
68609;SHT31;55581;46.718;7.690;2023-04-01T08:56:50;8.97;73.08
68609;SHT31;55581;46.718;7.690;2023-04-01T08:59:46;8.93;71.33
68609;SHT31;55581;46.718;7.690;2023-04-01T09:11:54;8.98;67.98
68609;SHT31;55581;46.718;7.690;2023-04-01T09:25:38;9.37;66.58
68609;SHT31;55581;46.718;7.690;2023-04-01T09:28:10;9.30;65.90
68609;SHT31;55581;46.718;7.690;2023-04-01T09:42:32;9.42;65.49
68609;SHT31;55581;46.718;7.690;2023-04-01T09:50:46;9.61;65.83
68609;SHT31;55581;46.718;7.690;2023-04-01T10:06:58;9.91;62.49
68609;SHT31;55581;46.718;7.690;2023-04-01T10:15:52;10.18;62.13
68609;SHT31;55581;46.718;7.690;2023-04-01T10:27:06;10.26;64.06
68609;SHT31;55581;46.718;7.690;2023-04-01T10:40:34;10.81;59.44
68609;SHT31;55581;46.718;7.690;2023-04-01T10:55:01;11.88;56.95
68609;SHT31;55581;46.718;7.690;2023-04-01T11:25:52;12.73;50.06
68609;SHT31;55581;46.718;7.690;2023-04-01T11:54:00;12.21;52.26
68609;SHT31;55581;46.718;7.690;2023-04-01T11:59:50;12.40;49.83
68609;SHT31;55581;46.718;7.690;2023-04-01T12:05:25;12.66;51.79
68609;SHT31;55581;46.718;7.690;2023-04-01T12:10:58;12.95;49.60
68609;SHT31;55581;46.718;7.690;2023-04-01T12:13:43;12.98;52.22
68609;SHT31;55581;46.718;7.690;2023-04-01T12:19:47;12.53;49.82
68609;SHT31;55581;46.718;7.690;2023-04-01T12:22:30;12.77;49.67
68609;SHT31;55581;46.718;7.690;2023-04-01T13:22:02;13.98;45.17
68609;SHT31;55581;46.718;7.690;2023-04-01T13:27:33;14.69;44.56
68609;SHT31;55581;46.718;7.690;2023-04-01T13:44:10;14.21;49.41
68609;SHT31;55581;46.718;7.690;2023-04-01T14:05:39;14.52;48.64
68609;SHT31;55581;46.718;7.690;2023-04-01T14:14:26;14.53;45.58
68609;SHT31;55581;46.718;7.690;2023-04-01T14:17:24;14.56;45.16
68609;SHT31;55581;46.718;7.690;2023-04-01T14:23:07;14.84;43.69
68609;SHT31;55581;46.718;7.690;2023-04-01T14:36:47;14.97;42.64
68609;SHT31;55581;46.718;7.690;2023-04-01T14:45:20;15.10;41.77
68609;SHT31;55581;46.718;7.690;2023-04-01T14:54:00;15.20;40.46
68609;SHT31;55581;46.718;7.690;2023-04-01T14:56:42;15.18;40.22
68609;SHT31;55581;46.718;7.690;2023-04-01T15:07:01;14.28;40.30
68609;SHT31;55581;46.718;7.690;2023-04-01T15:18:27;13.91;40.97
68609;SHT31;55581;46.718;7.690;2023-04-01T15:32:01;13.79;41.65
68609;SHT31;55581;46.718;7.690;2023-04-01T15:34:50;13.77;39.61
68609;SHT31;55581;46.718;7.690;2023-04-01T15:37:44;13.90;39.21
68609;SHT31;55581;46.718;7.690;2023-04-01T15:40:30;14.01;40.02
68609;SHT31;55581;46.718;7.690;2023-04-01T15:54:01;13.96;41.89
68609;SHT31;55581;46.718;7.690;2023-04-01T16:02:36;14.17;40.68
68609;SHT31;55581;46.718;7.690;2023-04-01T16:07:48;14.14;41.13
68609;SHT31;55581;46.718;7.690;2023-04-01T16:15:48;13.91;41.08
68609;SHT31;55581;46.718;7.690;2023-04-01T16:23:56;13.70;42.67
68609;SHT31;55581;46.718;7.690;2023-04-01T16:37:47;12.66;48.53
68609;SHT31;55581;46.718;7.690;2023-04-01T16:48:58;12.46;50.89
68609;SHT31;55581;46.718;7.690;2023-04-01T16:51:34;12.38;51.08
68609;SHT31;55581;46.718;7.690;2023-04-01T16:54:40;12.32;51.39
68609;SHT31;55581;46.718;7.690;2023-04-01T16:59:44;12.17;52.39
68609;SHT31;55581;46.718;7.690;2023-04-01T17:02:16;12.05;53.14
68609;SHT31;55581;46.718;7.690;2023-04-01T17:10:29;11.71;53.76
68609;SHT31;55581;46.718;7.690;2023-04-01T17:13:13;11.49;54.97
68609;SHT31;55581;46.718;7.690;2023-04-01T17:16:38;11.43;55.79
68609;SHT31;55581;46.718;7.690;2023-04-01T17:22:25;11.04;57.88
68609;SHT31;55581;46.718;7.690;2023-04-01T17:33:10;10.55;61.62
68609;SHT31;55581;46.718;7.690;2023-04-01T17:43:42;10.35;61.74
68609;SHT31;55581;46.718;7.690;2023-04-01T17:51:43;10.45;60.27
68609;SHT31;55581;46.718;7.690;2023-04-01T18:08:46;10.05;60.77
68609;SHT31;55581;46.718;7.690;2023-04-01T18:11:43;10.06;59.91
68609;SHT31;55581;46.718;7.690;2023-04-01T18:17:25;9.90;61.37
68609;SHT31;55581;46.718;7.690;2023-04-01T18:20:06;9.84;62.15
68609;SHT31;55581;46.718;7.690;2023-04-01T18:27:41;9.57;63.83
68609;SHT31;55581;46.718;7.690;2023-04-01T18:40:57;9.46;68.12
68609;SHT31;55581;46.718;7.690;2023-04-01T18:43:32;9.44;71.14
68609;SHT31;55581;46.718;7.690;2023-04-01T18:46:20;9.35;72.52
68609;SHT31;55581;46.718;7.690;2023-04-01T18:48:57;9.26;72.35
68609;SHT31;55581;46.718;7.690;2023-04-01T18:56:43;9.23;70.06
68609;SHT31;55581;46.718;7.690;2023-04-01T19:01:42;9.26;70.25
68609;SHT31;55581;46.718;7.690;2023-04-01T19:04:18;9.27;69.29
68609;SHT31;55581;46.718;7.690;2023-04-01T19:06:51;9.30;69.68
68609;SHT31;55581;46.718;7.690;2023-04-01T19:09:43;9.30;70.35
68609;SHT31;55581;46.718;7.690;2023-04-01T19:26:11;9.16;71.51
68609;SHT31;55581;46.718;7.690;2023-04-01T19:31:54;8.97;71.06
68609;SHT31;55581;46.718;7.690;2023-04-01T19:40:02;8.68;72.00
68609;SHT31;55581;46.718;7.690;2023-04-01T19:43:09;8.56;72.70
68609;SHT31;55581;46.718;7.690;2023-04-01T19:45:43;8.39;73.99
68609;SHT31;55581;46.718;7.690;2023-04-01T19:51:24;8.32;73.13
68609;SHT31;55581;46.718;7.690;2023-04-01T19:54:01;8.30;72.79
68609;SHT31;55581;46.718;7.690;2023-04-01T19:59:48;8.34;72.06
68609;SHT31;55581;46.718;7.690;2023-04-01T20:04:57;8.33;71.92
68609;SHT31;55581;46.718;7.690;2023-04-01T20:07:51;8.26;72.88
68609;SHT31;55581;46.718;7.690;2023-04-01T20:10:23;8.25;72.25
68609;SHT31;55581;46.718;7.690;2023-04-01T20:16:03;8.16;72.52
68609;SHT31;55581;46.718;7.690;2023-04-01T20:18:49;8.13;73.05
68609;SHT31;55581;46.718;7.690;2023-04-01T20:21:34;8.23;72.42
68609;SHT31;55581;46.718;7.690;2023-04-01T20:24:14;8.12;72.02
68609;SHT31;55581;46.718;7.690;2023-04-01T20:26:50;8.15;73.43
68609;SHT31;55581;46.718;7.690;2023-04-01T20:32:15;8.16;73.18
68609;SHT31;55581;46.718;7.690;2023-04-01T20:48:31;8.39;72.07
68609;SHT31;55581;46.718;7.690;2023-04-01T20:51:17;8.33;72.21
68609;SHT31;55581;46.718;7.690;2023-04-01T20:54:51;8.23;72.35
68609;SHT31;55581;46.718;7.690;2023-04-01T20:57:06;8.15;72.92
68609;SHT31;55581;46.718;7.690;2023-04-01T21:16:01;7.78;74.83
68609;SHT31;55581;46.718;7.690;2023-04-01T21:30:16;7.78;79.55
68609;SHT31;55581;46.718;7.690;2023-04-01T21:41:11;7.60;80.76
68609;SHT31;55581;46.718;7.690;2023-04-01T21:46:48;7.71;80.59
68609;SHT31;55581;46.718;7.690;2023-04-01T22:00:09;7.63;80.33
68609;SHT31;55581;46.718;7.690;2023-04-01T22:06:22;7.56;80.84
68609;SHT31;55581;46.718;7.690;2023-04-01T22:14:18;7.53;81.80
68609;SHT31;55581;46.718;7.690;2023-04-01T22:16:55;7.51;81.79
68609;SHT31;55581;46.718;7.690;2023-04-01T22:25:14;7.51;82.19
68609;SHT31;55581;46.718;7.690;2023-04-01T22:27:46;7.60;81.05
68609;SHT31;55581;46.718;7.690;2023-04-01T22:32:57;7.50;81.26
68609;SHT31;55581;46.718;7.690;2023-04-01T22:38:06;7.40;81.71
68609;SHT31;55581;46.718;7.690;2023-04-01T22:40:47;7.37;82.49
68609;SHT31;55581;46.718;7.690;2023-04-01T22:45:58;7.36;81.22
68609;SHT31;55581;46.718;7.690;2023-04-01T22:54:02;7.24;82.20
68609;SHT31;55581;46.718;7.690;2023-04-01T22:56:38;7.30;81.40
68609;SHT31;55581;46.718;7.690;2023-04-01T23:01:42;7.33;81.46
68609;SHT31;55581;46.718;7.690;2023-04-01T23:04:12;7.34;81.82
68609;SHT31;55581;46.718;7.690;2023-04-01T23:06:45;7.46;81.41
68609;SHT31;55581;46.718;7.690;2023-04-01T23:09:26;7.44;81.51
68609;SHT31;55581;46.718;7.690;2023-04-01T23:12:11;7.53;81.35
68609;SHT31;55581;46.718;7.690;2023-04-01T23:14:52;7.49;81.02
68609;SHT31;55581;46.718;7.690;2023-04-01T23:36:13;7.16;84.84
68609;SHT31;55581;46.718;7.690;2023-04-01T23:38:41;7.20;85.24
68609;SHT31;55581;46.718;7.690;2023-04-01T23:41:09;7.20;84.49
68609;SHT31;55581;46.718;7.690;2023-04-01T23:43:45;7.13;84.48
68609;SHT31;55581;46.718;7.690;2023-04-01T23:46:12;7.09;85.23
68609;SHT31;55581;46.718;7.690;2023-04-01T23:48:43;7.11;84.97
68609;SHT31;55581;46.718;7.690;2023-04-01T23:51:29;7.13;85.05
68609;SHT31;55581;46.718;7.690;2023-04-01T23:54:14;7.15;85.06
68609;SHT31;55581;46.718;7.690;2023-04-01T23:56:46;7.09;85.32
68609;SHT31;55581;46.718;7.690;2023-04-01T23:59:24;7.09;83.81
